Time;durP1;ratioP1;P1;durP2;ratioP2;P2;SDS_P1;SDS_P2;PMS_P1;PMS_P2;Temp;Humidity;BMP_temperature;BMP_pressure;BME280_temperature;BME280_humidity;BME280_pressure;Samples;Min_cycle;Max_cycle;Signal;HPM_P1;HPM_P2
2023/06/13 00:00:41;;;;;;;6.70;4.00;;;;;;;;;;6108282;23;20397;-91
2023/06/13 00:03:09;;;;;;;7.53;4.03;;;;;;;;;;6109459;23;20385;-92
2023/06/13 00:05:35;;;;;;;7.37;4.07;;;;;;;;;;6107275;23;20376;-92
2023/06/13 00:08:01;;;;;;;4.50;3.90;;;;;;;;;;6108135;23;20841;-91
2023/06/13 00:10:27;;;;;;;4.63;3.90;;;;;;;;;;6108221;23;20395;-92
2023/06/13 00:12:53;;;;;;;4.90;3.70;;;;;;;;;;6108202;23;20447;-92
2023/06/13 00:15:19;;;;;;;6.40;4.60;;;;;;;;;;6107550;23;20385;-92
2023/06/13 00:17:47;;;;;;;5.60;4.33;;;;;;;;;;6108395;23;20742;-92
2023/06/13 00:20:13;;;;;;;5.40;4.30;;;;;;;;;;6108977;23;20712;-91
2023/06/13 00:22:40;;;;;;;5.07;4.10;;;;;;;;;;6108737;23;20389;-92
2023/06/13 00:25:06;;;;;;;5.53;4.23;;;;;;;;;;6108640;23;20773;-92
2023/06/13 00:27:32;;;;;;;4.67;3.80;;;;;;;;;;6108892;23;20729;-93
2023/06/13 00:29:58;;;;;;;5.07;3.70;;;;;;;;;;6044750;23;20392;-92
2023/06/13 00:32:24;;;;;;;5.97;3.13;;;;;;;;;;6020802;23;20387;-92
2023/06/13 00:34:50;;;;;;;7.80;3.73;;;;;;;;;;6021320;23;20460;-92
2023/06/13 00:37:16;;;;;;;6.37;4.13;;;;;;;;;;6021452;23;20430;-91
2023/06/13 00:39:43;;;;;;;7.80;3.73;;;;;;;;;;6020354;23;20440;-92
2023/06/13 00:42:09;;;;;;;6.97;3.83;;;;;;;;;;6021383;23;20398;-92
2023/06/13 00:44:35;;;;;;;6.47;3.50;;;;;;;;;;6020402;23;20387;-91
2023/06/13 00:47:02;;;;;;;3.90;3.50;;;;;;;;;;6021162;23;20384;-92
2023/06/13 00:49:28;;;;;;;5.10;3.57;;;;;;;;;;6020497;23;20423;-91
2023/06/13 00:51:54;;;;;;;5.80;3.70;;;;;;;;;;6020142;23;20470;-91
2023/06/13 00:54:21;;;;;;;4.40;3.70;;;;;;;;;;6019003;23;20396;-92
2023/06/13 00:56:48;;;;;;;6.43;4.20;;;;;;;;;;6018320;23;20428;-92
2023/06/13 00:59:14;;;;;;;4.40;4.00;;;;;;;;;;6019911;23;20387;-91
2023/06/13 01:01:40;;;;;;;5.30;3.50;;;;;;;;;;6089453;23;20455;-92
2023/06/13 01:04:07;;;;;;;5.47;4.20;;;;;;;;;;6107113;23;20381;-91
2023/06/13 01:06:33;;;;;;;5.00;4.20;;;;;;;;;;6106937;23;20384;-92
2023/06/13 01:09:00;;;;;;;5.27;4.33;;;;;;;;;;6108855;23;20388;-92
2023/06/13 01:11:45;;;;;;;8.40;4.13;;;;;;;;;;6108594;23;20472;-92
2023/06/13 01:14:20;;;;;;;8.40;4.60;;;;;;;;;;6157812;23;20392;-91
2023/06/13 01:16:47;;;;;;;6.50;4.10;;;;;;;;;;6132494;23;20424;-92
2023/06/13 01:19:33;;;;;;;5.37;3.93;;;;;;;;;;6107547;23;20381;-92
2023/06/13 01:21:59;;;;;;;5.47;4.70;;;;;;;;;;6131654;23;20375;-91
2023/06/13 01:24:44;;;;;;;4.87;4.20;;;;;;;;;;6107508;23;20369;-91
2023/06/13 01:27:12;;;;;;;4.97;4.13;;;;;;;;;;6132421;23;20377;-93
2023/06/13 01:29:38;;;;;;;5.30;4.07;;;;;;;;;;6107037;23;20381;-92
2023/06/13 01:32:04;;;;;;;5.83;4.10;;;;;;;;;;6106346;23;20631;-92
2023/06/13 01:34:30;;;;;;;5.37;4.40;;;;;;;;;;6106940;23;20396;-92
2023/06/13 01:36:56;;;;;;;4.73;4.10;;;;;;;;;;6106951;23;20500;-92
2023/06/13 01:39:22;;;;;;;6.17;4.00;;;;;;;;;;6107882;23;20389;-92
2023/06/13 01:41:48;;;;;;;4.70;3.37;;;;;;;;;;6109103;23;20387;-93
2023/06/13 01:44:17;;;;;;;4.73;3.83;;;;;;;;;;6133520;23;20361;-92
2023/06/13 01:46:45;;;;;;;5.60;4.07;;;;;;;;;;6107089;23;20381;-92
2023/06/13 01:49:16;;;;;;;5.97;4.03;;;;;;;;;;6108149;23;20377;-92
2023/06/13 01:51:49;;;;;;;5.97;4.40;;;;;;;;;;6132302;23;20956;-92
2023/06/13 01:54:15;;;;;;;4.80;3.60;;;;;;;;;;6107160;23;20381;-91
2023/06/13 01:56:42;;;;;;;5.30;3.80;;;;;;;;;;6107542;23;20391;-93
2023/06/13 01:59:08;;;;;;;4.50;3.70;;;;;;;;;;6107784;23;20472;-93
2023/06/13 02:01:35;;;;;;;4.93;3.50;;;;;;;;;;6108288;23;20743;-93
2023/06/13 02:04:02;;;;;;;7.53;4.27;;;;;;;;;;6108922;23;20385;-91
2023/06/13 02:06:28;;;;;;;5.00;4.00;;;;;;;;;;6109052;23;20407;-92
2023/06/13 02:08:54;;;;;;;6.70;3.93;;;;;;;;;;6109276;23;20420;-92
2023/06/13 02:11:20;;;;;;;5.93;3.60;;;;;;;;;;6108685;23;20399;-93
2023/06/13 02:13:47;;;;;;;4.20;3.20;;;;;;;;;;6108519;23;20381;-93
2023/06/13 02:16:14;;;;;;;4.67;3.80;;;;;;;;;;6110834;23;20389;-92
2023/06/13 02:18:40;;;;;;;5.37;3.70;;;;;;;;;;6110410;23;20451;-92
2023/06/13 02:21:06;;;;;;;3.70;3.30;;;;;;;;;;6109438;23;20441;-92
2023/06/13 02:23:32;;;;;;;4.20;3.23;;;;;;;;;;6108327;23;20385;-92
2023/06/13 02:25:58;;;;;;;7.77;3.90;;;;;;;;;;6109648;23;20401;-92
2023/06/13 02:28:24;;;;;;;6.00;3.77;;;;;;;;;;6109903;23;20391;-92
2023/06/13 02:30:50;;;;;;;7.43;4.03;;;;;;;;;;6109850;23;20409;-92
2023/06/13 02:33:19;;;;;;;5.80;4.07;;;;;;;;;;6106408;23;20383;-92
2023/06/13 02:35:48;;;;;;;3.93;3.50;;;;;;;;;;6159684;23;20364;-92
2023/06/13 02:38:14;;;;;;;6.70;4.00;;;;;;;;;;6109913;23;20416;-92
2023/06/13 02:40:40;;;;;;;4.17;3.77;;;;;;;;;;6109268;23;20801;-92
2023/06/13 02:43:06;;;;;;;6.93;3.97;;;;;;;;;;6108764;23;20396;-91
2023/06/13 02:45:32;;;;;;;4.10;3.70;;;;;;;;;;6109422;23;20465;-91
2023/06/13 02:47:58;;;;;;;7.93;4.37;;;;;;;;;;6108460;23;20385;-92
2023/06/13 02:50:24;;;;;;;5.70;3.40;;;;;;;;;;6109065;23;20385;-92
2023/06/13 02:52:51;;;;;;;5.03;3.60;;;;;;;;;;6109182;23;20373;-92
2023/06/13 02:55:17;;;;;;;7.10;3.80;;;;;;;;;;6110652;23;20392;-92
2023/06/13 02:57:45;;;;;;;5.97;4.37;;;;;;;;;;6109056;23;20428;-92
2023/06/13 03:00:11;;;;;;;5.13;3.60;;;;;;;;;;6108597;23;20768;-94
2023/06/13 03:02:37;;;;;;;5.20;3.60;;;;;;;;;;6108501;23;20385;-92
2023/06/13 03:05:07;;;;;;;5.17;3.80;;;;;;;;;;6108196;23;20853;-92
2023/06/13 03:07:33;;;;;;;7.60;4.70;;;;;;;;;;6108248;23;20389;-92
2023/06/13 03:10:03;;;;;;;5.37;3.60;;;;;;;;;;6109886;23;20441;-92
2023/06/13 03:12:30;;;;;;;4.77;4.10;;;;;;;;;;6108565;23;20481;-93
2023/06/13 03:14:56;;;;;;;5.00;3.83;;;;;;;;;;6108200;23;20875;-92
2023/06/13 03:17:22;;;;;;;4.07;3.53;;;;;;;;;;6108025;23;20511;-92
2023/06/13 03:19:48;;;;;;;8.50;3.10;;;;;;;;;;6110958;23;20409;-92
2023/06/13 03:22:14;;;;;;;4.00;3.20;;;;;;;;;;6109007;23;20892;-92
2023/06/13 03:24:44;;;;;;;4.63;3.43;;;;;;;;;;6135407;23;20373;-92
2023/06/13 03:27:12;;;;;;;4.67;3.50;;;;;;;;;;6109080;23;20381;-92
2023/06/13 03:29:38;;;;;;;5.73;3.40;;;;;;;;;;6134482;23;20737;-91
2023/06/13 03:32:04;;;;;;;6.00;3.27;;;;;;;;;;6109419;23;20716;-91
2023/06/13 03:34:38;;;;;;;4.30;3.73;;;;;;;;;;6107806;23;20475;-91
2023/06/13 03:37:07;;;;;;;10.80;4.57;;;;;;;;;;6107821;23;20412;-91
2023/06/13 03:39:33;;;;;;;6.30;4.03;;;;;;;;;;6108820;23;20437;-91
2023/06/13 03:42:00;;;;;;;3.70;3.00;;;;;;;;;;6108471;23;20416;-91
2023/06/13 03:44:27;;;;;;;4.77;4.30;;;;;;;;;;6107813;23;20841;-91
2023/06/13 03:46:54;;;;;;;4.00;2.90;;;;;;;;;;6105727;23;20389;-91
2023/06/13 03:49:20;;;;;;;6.37;3.40;;;;;;;;;;6105833;23;20422;-91
2023/06/13 03:51:46;;;;;;;6.67;3.00;;;;;;;;;;6105198;23;20452;-91
2023/06/13 03:54:12;;;;;;;4.70;3.60;;;;;;;;;;6106011;23;20416;-92
2023/06/13 03:56:38;;;;;;;6.47;3.20;;;;;;;;;;6106800;23;20391;-92
2023/06/13 03:59:04;;;;;;;6.10;3.30;;;;;;;;;;6106216;23;20460;-92
2023/06/13 04:01:30;;;;;;;4.53;3.20;;;;;;;;;;6106305;23;20443;-91
2023/06/13 04:03:56;;;;;;;3.20;2.57;;;;;;;;;;6104410;23;20384;-91
2023/06/13 04:06:22;;;;;;;7.07;2.93;;;;;;;;;;6106994;23;20381;-91
2023/06/13 04:08:47;;;;;;;3.63;2.93;;;;;;;;;;6107674;23;21253;-89
2023/06/13 04:11:14;;;;;;;3.53;2.97;;;;;;;;;;6106321;23;20393;-91
2023/06/13 04:13:41;;;;;;;5.07;4.10;;;;;;;;;;6106580;23;20744;-92
2023/06/13 04:16:07;;;;;;;4.30;3.17;;;;;;;;;;6108503;23;20392;-92
2023/06/13 04:18:37;;;;;;;4.50;3.23;;;;;;;;;;6107809;23;20942;-91
2023/06/13 04:21:06;;;;;;;4.50;3.60;;;;;;;;;;6108082;23;20389;-91
2023/06/13 04:23:32;;;;;;;6.17;3.43;;;;;;;;;;6109562;23;20381;-92
2023/06/13 04:26:00;;;;;;;8.13;2.97;;;;;;;;;;6107465;23;20428;-91
2023/06/13 04:28:26;;;;;;;5.13;3.10;;;;;;;;;;6106601;23;20805;-91
2023/06/13 04:30:52;;;;;;;4.80;3.70;;;;;;;;;;6110553;23;20395;-90
2023/06/13 04:33:18;;;;;;;5.90;3.87;;;;;;;;;;6106316;23;20473;-90
2023/06/13 04:35:44;;;;;;;4.53;2.90;;;;;;;;;;6107728;23;20444;-91
2023/06/13 04:38:11;;;;;;;4.87;3.23;;;;;;;;;;6105504;23;20448;-92
2023/06/13 04:40:38;;;;;;;4.17;2.60;;;;;;;;;;6107016;23;20388;-91
2023/06/13 04:43:04;;;;;;;5.43;3.30;;;;;;;;;;6105628;23;20388;-91
2023/06/13 04:45:30;;;;;;;6.30;3.77;;;;;;;;;;6106300;23;20389;-92
2023/06/13 04:48:03;;;;;;;4.07;3.20;;;;;;;;;;6106003;23;20799;-92
2023/06/13 04:50:31;;;;;;;4.93;3.53;;;;;;;;;;6109000;23;20381;-92
2023/06/13 04:52:57;;;;;;;5.77;3.67;;;;;;;;;;6105536;23;20412;-92
2023/06/13 04:55:29;;;;;;;5.10;2.70;;;;;;;;;;6107030;23;20407;-92
2023/06/13 04:57:55;;;;;;;6.30;3.60;;;;;;;;;;6108382;23;20463;-89
2023/06/13 05:00:22;;;;;;;6.43;3.40;;;;;;;;;;6108817;23;20856;-91
2023/06/13 05:02:48;;;;;;;4.50;3.00;;;;;;;;;;6107204;23;20975;-92
2023/06/13 05:05:16;;;;;;;4.10;3.23;;;;;;;;;;6107130;23;20385;-91
2023/06/13 05:07:43;;;;;;;3.97;2.60;;;;;;;;;;6108188;23;20389;-91
2023/06/13 05:10:12;;;;;;;5.33;3.87;;;;;;;;;;6107505;23;20396;-90
2023/06/13 05:12:38;;;;;;;4.80;3.00;;;;;;;;;;6106543;23;20396;-90
2023/06/13 05:15:05;;;;;;;5.43;3.43;;;;;;;;;;6106921;23;20393;-90
2023/06/13 05:17:31;;;;;;;3.90;2.67;;;;;;;;;;6108051;23;20456;-92
2023/06/13 05:19:57;;;;;;;5.43;3.63;;;;;;;;;;6105302;23;20381;-91
2023/06/13 05:22:22;;;;;;;8.70;3.30;;;;;;;;;;6108613;23;20691;-91
2023/06/13 05:24:49;;;;;;;4.20;3.20;;;;;;;;;;6107079;23;20388;-92
2023/06/13 05:27:15;;;;;;;5.00;2.90;;;;;;;;;;6106906;23;20436;-89
2023/06/13 05:29:42;;;;;;;4.17;2.77;;;;;;;;;;6107965;23;20389;-91
2023/06/13 05:32:08;;;;;;;4.80;2.63;;;;;;;;;;6108886;23;20435;-92
2023/06/13 05:34:34;;;;;;;3.77;2.47;;;;;;;;;;6112009;23;20388;-91
2023/06/13 05:37:00;;;;;;;4.00;3.00;;;;;;;;;;6108770;23;20954;-92
2023/06/13 05:39:26;;;;;;;5.63;2.90;;;;;;;;;;6112350;23;20420;-90
2023/06/13 05:41:52;;;;;;;3.87;3.07;;;;;;;;;;6109914;23;20395;-91
2023/06/13 05:44:18;;;;;;;3.80;3.20;;;;;;;;;;6112820;23;20408;-93
2023/06/13 05:46:44;;;;;;;3.60;3.10;;;;;;;;;;6109688;23;20391;-91
2023/06/13 05:49:10;;;;;;;4.80;3.20;;;;;;;;;;6110238;23;20723;-91
2023/06/13 05:51:37;;;;;;;4.00;2.97;;;;;;;;;;6110296;23;20448;-91
2023/06/13 05:54:03;;;;;;;4.80;2.90;;;;;;;;;;6108585;23;20387;-91
2023/06/13 05:56:31;;;;;;;3.10;2.73;;;;;;;;;;6110283;23;20396;-92
2023/06/13 05:58:58;;;;;;;6.30;3.33;;;;;;;;;;6110744;23;20391;-90
2023/06/13 06:01:24;;;;;;;3.07;2.63;;;;;;;;;;6109830;23;20790;-89
2023/06/13 06:03:51;;;;;;;7.10;3.10;;;;;;;;;;6108625;23;20385;-88
2023/06/13 06:06:16;;;;;;;4.67;2.73;;;;;;;;;;6109539;23;20373;-90
2023/06/13 06:08:42;;;;;;;4.57;2.73;;;;;;;;;;6109596;23;20403;-90
2023/06/13 06:11:08;;;;;;;4.33;2.60;;;;;;;;;;6109451;23;20388;-90
2023/06/13 06:13:35;;;;;;;7.13;2.60;;;;;;;;;;6109311;23;20834;-90
2023/06/13 06:16:00;;;;;;;3.90;2.60;;;;;;;;;;6108703;23;20389;-91
2023/06/13 06:18:26;;;;;;;3.63;3.23;;;;;;;;;;6109135;23;20423;-91
2023/06/13 06:20:52;;;;;;;7.40;3.10;;;;;;;;;;6107169;23;20373;-90
2023/06/13 06:23:18;;;;;;;6.60;3.67;;;;;;;;;;6106152;23;20436;-91
2023/06/13 06:25:45;;;;;;;3.67;2.80;;;;;;;;;;6107472;23;20381;-92
2023/06/13 06:28:11;;;;;;;4.10;3.30;;;;;;;;;;6106897;23;20392;-90
2023/06/13 06:30:37;;;;;;;7.13;2.40;;;;;;;;;;6107166;23;20384;-89
2023/06/13 06:33:03;;;;;;;3.60;2.97;;;;;;;;;;6108027;23;20393;-90
2023/06/13 06:35:29;;;;;;;3.80;2.40;;;;;;;;;;6107516;23;20845;-90
2023/06/13 06:37:55;;;;;;;4.00;2.77;;;;;;;;;;6106738;23;20420;-91
2023/06/13 06:40:21;;;;;;;5.00;3.03;;;;;;;;;;6108073;23;20385;-90
2023/06/13 06:42:47;;;;;;;4.63;2.93;;;;;;;;;;6111337;23;20437;-91
2023/06/13 06:45:13;;;;;;;3.10;2.80;;;;;;;;;;6108809;23;20373;-90
2023/06/13 06:47:39;;;;;;;5.77;2.80;;;;;;;;;;6108964;23;20431;-91
2023/06/13 06:50:06;;;;;;;5.47;2.57;;;;;;;;;;6107851;23;20468;-92
2023/06/13 06:52:32;;;;;;;6.50;2.53;;;;;;;;;;6110512;23;20856;-91
2023/06/13 06:54:58;;;;;;;3.67;2.50;;;;;;;;;;6109233;23;20467;-92
2023/06/13 06:57:25;;;;;;;3.10;2.30;;;;;;;;;;6132399;23;20760;-93
2023/06/13 06:59:51;;;;;;;4.63;3.10;;;;;;;;;;6109526;23;20852;-90
2023/06/13 07:02:17;;;;;;;5.90;3.20;;;;;;;;;;6110331;23;20845;-92
2023/06/13 07:04:43;;;;;;;4.40;3.03;;;;;;;;;;6109735;23;20388;-91
2023/06/13 07:07:11;;;;;;;6.10;2.73;;;;;;;;;;6108805;23;20477;-92
2023/06/13 07:09:37;;;;;;;4.47;2.83;;;;;;;;;;6109010;23;20384;-92
2023/06/13 07:12:03;;;;;;;4.80;3.40;;;;;;;;;;6110021;23;20400;-92
2023/06/13 07:14:29;;;;;;;2.77;2.47;;;;;;;;;;6109181;23;20435;-92
2023/06/13 07:16:55;;;;;;;6.17;3.37;;;;;;;;;;6114699;23;20437;-93
2023/06/13 07:19:23;;;;;;;3.20;2.90;;;;;;;;;;6107057;23;20892;-91
2023/06/13 07:21:49;;;;;;;3.70;2.73;;;;;;;;;;6110372;23;20396;-92
2023/06/13 07:24:15;;;;;;;4.60;2.60;;;;;;;;;;6106142;23;20377;-87
2023/06/13 07:26:41;;;;;;;7.60;3.10;;;;;;;;;;6106155;23;20388;-88
2023/06/13 07:29:07;;;;;;;5.00;3.30;;;;;;;;;;6105540;23;21149;-90
2023/06/13 07:31:32;;;;;;;3.53;2.83;;;;;;;;;;6106219;23;20388;-90
2023/06/13 07:33:58;;;;;;;5.27;3.00;;;;;;;;;;6106343;23;20385;-90
2023/06/13 07:36:24;;;;;;;4.40;3.37;;;;;;;;;;6108669;23;20845;-90
2023/06/13 07:38:51;;;;;;;4.77;3.37;;;;;;;;;;6108407;23;20432;-89
2023/06/13 07:41:17;;;;;;;4.20;2.90;;;;;;;;;;6109307;23;20388;-90
2023/06/13 07:43:43;;;;;;;4.40;3.10;;;;;;;;;;6108121;23;20381;-90
2023/06/13 07:46:09;;;;;;;5.83;4.13;;;;;;;;;;6109185;23;20767;-90
2023/06/13 07:48:35;;;;;;;11.43;3.67;;;;;;;;;;6110030;23;20472;-91
2023/06/13 07:51:01;;;;;;;3.70;3.27;;;;;;;;;;6108725;23;20396;-90
2023/06/13 07:53:27;;;;;;;4.53;3.40;;;;;;;;;;6108071;23;20384;-88
2023/06/13 07:55:55;;;;;;;8.17;3.70;;;;;;;;;;6108762;23;20483;-90
2023/06/13 07:58:21;;;;;;;5.23;3.20;;;;;;;;;;6107419;23;20448;-90
2023/06/13 08:00:47;;;;;;;3.57;3.27;;;;;;;;;;6132663;23;20829;-88
2023/06/13 08:03:13;;;;;;;3.50;2.80;;;;;;;;;;6108056;23;20412;-89
2023/06/13 08:05:39;;;;;;;7.60;3.63;;;;;;;;;;6109273;23;20373;-89
2023/06/13 08:08:05;;;;;;;6.50;3.77;;;;;;;;;;6107355;23;20388;-89
2023/06/13 08:10:31;;;;;;;4.07;2.90;;;;;;;;;;6105879;23;20385;-89
2023/06/13 08:12:57;;;;;;;3.93;3.10;;;;;;;;;;6107207;23;20381;-90
2023/06/13 08:15:23;;;;;;;7.40;3.60;;;;;;;;;;6107217;23;20377;-89
2023/06/13 08:17:49;;;;;;;5.10;3.50;;;;;;;;;;6107981;23;20413;-90
2023/06/13 08:20:15;;;;;;;7.30;4.10;;;;;;;;;;6108844;23;20859;-90
2023/06/13 08:22:41;;;;;;;3.70;3.33;;;;;;;;;;6044152;23;20461;-88
2023/06/13 08:25:10;;;;;;;6.27;3.93;;;;;;;;;;6019886;23;20853;-89
2023/06/13 08:27:37;;;;;;;7.47;3.80;;;;;;;;;;6017776;23;20503;-89
2023/06/13 08:30:04;;;;;;;3.43;3.13;;;;;;;;;;6019690;23;20375;-88
2023/06/13 08:32:31;;;;;;;5.93;3.50;;;;;;;;;;6020259;23;20388;-89
2023/06/13 08:34:57;;;;;;;7.27;3.27;;;;;;;;;;6020127;23;20717;-90
2023/06/13 08:37:23;;;;;;;5.17;3.20;;;;;;;;;;6020027;23;20420;-90
2023/06/13 08:39:49;;;;;;;6.00;3.00;;;;;;;;;;6021109;23;20414;-89
2023/06/13 08:42:15;;;;;;;6.90;3.47;;;;;;;;;;6019104;23;20721;-91
2023/06/13 08:44:41;;;;;;;4.27;3.43;;;;;;;;;;6019598;23;20787;-89
2023/06/13 08:47:08;;;;;;;5.70;3.60;;;;;;;;;;6041280;23;21033;-88
2023/06/13 08:49:38;;;;;;;6.57;3.07;;;;;;;;;;6020651;23;20383;-86
2023/06/13 08:52:07;;;;;;;4.20;3.50;;;;;;;;;;6017597;23;21066;-89
2023/06/13 08:54:33;;;;;;;5.03;3.73;;;;;;;;;;6120247;23;20460;-89
2023/06/13 08:56:59;;;;;;;4.30;3.73;;;;;;;;;;6107175;23;20811;-90
2023/06/13 08:59:26;;;;;;;5.43;3.97;;;;;;;;;;6108457;23;20424;-89
2023/06/13 09:01:53;;;;;;;7.30;3.63;;;;;;;;;;6131556;23;20452;-89
2023/06/13 09:04:19;;;;;;;3.97;3.40;;;;;;;;;;6107280;23;20444;-89
2023/06/13 09:06:45;;;;;;;6.00;4.20;;;;;;;;;;6106440;23;20460;-89
2023/06/13 09:09:12;;;;;;;7.00;3.60;;;;;;;;;;6108203;23;20429;-89
2023/06/13 09:11:37;;;;;;;3.57;3.03;;;;;;;;;;6107739;23;20377;-90
2023/06/13 09:14:04;;;;;;;6.00;3.93;;;;;;;;;;6107981;23;20392;-90
2023/06/13 09:16:31;;;;;;;4.87;3.90;;;;;;;;;;6130956;23;20768;-89
2023/06/13 09:18:57;;;;;;;4.73;3.50;;;;;;;;;;6106889;23;20424;-89
2023/06/13 09:21:23;;;;;;;5.03;4.23;;;;;;;;;;6107887;23;20546;-89
2023/06/13 09:23:50;;;;;;;6.20;3.50;;;;;;;;;;6132827;23;20365;-89
2023/06/13 09:26:17;;;;;;;5.67;4.23;;;;;;;;;;6111063;23;20377;-90
2023/06/13 09:28:45;;;;;;;6.40;3.87;;;;;;;;;;6107631;23;20361;-88
2023/06/13 09:31:11;;;;;;;6.93;4.03;;;;;;;;;;6108030;23;20447;-88
2023/06/13 09:33:37;;;;;;;7.87;4.17;;;;;;;;;;6105415;23;20392;-86
2023/06/13 09:36:04;;;;;;;6.63;4.27;;;;;;;;;;6106277;23;20860;-87
2023/06/13 09:38:34;;;;;;;5.10;4.50;;;;;;;;;;6106063;23;20453;-87
2023/06/13 09:41:02;;;;;;;4.50;3.90;;;;;;;;;;6127014;23;20349;-87
2023/06/13 09:43:28;;;;;;;4.60;3.40;;;;;;;;;;6102913;23;20384;-86
2023/06/13 09:45:54;;;;;;;11.57;4.20;;;;;;;;;;6106506;23;20846;-90
2023/06/13 09:48:20;;;;;;;4.60;3.60;;;;;;;;;;6106462;23;20459;-89
2023/06/13 09:50:47;;;;;;;5.93;3.77;;;;;;;;;;6130782;23;20460;-90
2023/06/13 09:53:13;;;;;;;11.13;4.20;;;;;;;;;;6106560;23;20392;-89
2023/06/13 09:55:39;;;;;;;5.37;4.10;;;;;;;;;;6132171;23;20469;-87
2023/06/13 09:58:05;;;;;;;7.73;4.30;;;;;;;;;;6105193;23;20420;-89
2023/06/13 10:00:31;;;;;;;4.90;3.60;;;;;;;;;;6108953;23;20502;-89
2023/06/13 10:02:57;;;;;;;4.70;4.00;;;;;;;;;;6106427;23;20459;-89
2023/06/13 10:05:23;;;;;;;8.27;3.80;;;;;;;;;;6131652;23;20888;-89
2023/06/13 10:07:49;;;;;;;6.30;4.00;;;;;;;;;;6105777;23;20457;-90
2023/06/13 10:10:16;;;;;;;4.10;3.60;;;;;;;;;;6105907;23;20907;-90
2023/06/13 10:13:00;;;;;;;8.10;3.47;;;;;;;;;;6129469;23;20365;-87
2023/06/13 10:15:45;;;;;;;6.43;3.30;;;;;;;;;;6132111;23;20372;-89
2023/06/13 10:18:12;;;;;;;5.37;4.23;;;;;;;;;;6108106;23;20761;-87
2023/06/13 10:20:39;;;;;;;5.10;3.97;;;;;;;;;;6106820;23;20385;-89
2023/06/13 10:23:09;;;;;;;4.80;4.30;;;;;;;;;;6106315;23;20460;-87
2023/06/13 10:25:38;;;;;;;5.70;3.53;;;;;;;;;;6110936;23;20381;-95
2023/06/13 10:28:13;;;;;;;6.30;3.77;;;;;;;;;;6142969;23;20377;-96
2023/06/13 10:34:00;;;;;;;5.63;3.87;;;;;;;;;;6020711;23;20381;-95
2023/06/13 10:36:40;;;;;;;5.13;3.87;;;;;;;;;;5995264;23;20431;-95
2023/06/13 10:39:18;;;;;;;6.47;4.20;;;;;;;;;;5993853;23;20802;-94
2023/06/13 10:41:47;;;;;;;4.03;3.40;;;;;;;;;;5986862;23;20722;-90
2023/06/13 10:44:21;;;;;;;4.83;3.73;;;;;;;;;;5985672;23;20384;-88
2023/06/13 10:46:47;;;;;;;9.03;3.87;;;;;;;;;;5984666;23;20377;-90
2023/06/13 10:49:17;;;;;;;4.47;3.57;;;;;;;;;;5985277;23;20850;-88
2023/06/13 10:51:44;;;;;;;5.10;3.53;;;;;;;;;;5984497;23;20409;-90
2023/06/13 10:54:11;;;;;;;5.10;3.33;;;;;;;;;;5985989;23;20381;-90
2023/06/13 10:56:42;;;;;;;5.77;3.90;;;;;;;;;;5984725;23;20381;-90
2023/06/13 10:59:11;;;;;;;4.27;3.53;;;;;;;;;;5983483;23;20389;-89
2023/06/13 11:01:38;;;;;;;6.00;3.80;;;;;;;;;;5984608;23;20459;-89
2023/06/13 11:04:13;;;;;;;5.47;3.90;;;;;;;;;;5984934;23;20378;-89
2023/06/13 11:06:40;;;;;;;5.90;3.67;;;;;;;;;;5984657;23;20818;-88
2023/06/13 11:09:09;;;;;;;5.67;3.87;;;;;;;;;;5987812;23;20386;-89
2023/06/13 11:11:39;;;;;;;6.27;3.60;;;;;;;;;;6149791;23;20424;-89
2023/06/13 11:14:07;;;;;;;6.67;4.07;;;;;;;;;;6107553;23;20376;-88
2023/06/13 11:16:37;;;;;;;5.23;3.37;;;;;;;;;;6106566;23;20407;-88
2023/06/13 11:19:06;;;;;;;5.10;4.00;;;;;;;;;;6107148;23;20436;-90
2023/06/13 11:21:33;;;;;;;6.13;4.43;;;;;;;;;;6106632;23;20451;-88
2023/06/13 11:23:59;;;;;;;4.90;3.43;;;;;;;;;;6107107;23;20380;-89
2023/06/13 11:26:25;;;;;;;3.93;3.30;;;;;;;;;;6131499;23;20891;-88
2023/06/13 11:28:51;;;;;;;5.03;3.70;;;;;;;;;;6106974;23;20845;-89
2023/06/13 11:31:17;;;;;;;4.30;3.63;;;;;;;;;;6107425;23;20381;-89
2023/06/13 11:33:45;;;;;;;4.50;3.10;;;;;;;;;;6106734;23;20504;-89
2023/06/13 11:36:11;;;;;;;4.47;4.07;;;;;;;;;;6108198;23;20396;-88
2023/06/13 11:38:41;;;;;;;4.23;3.60;;;;;;;;;;6107506;23;20474;-89
2023/06/13 11:41:07;;;;;;;4.73;3.83;;;;;;;;;;6109042;23;20381;-89
2023/06/13 11:43:36;;;;;;;4.03;3.63;;;;;;;;;;6106807;23;20372;-89
2023/06/13 11:46:03;;;;;;;6.30;4.27;;;;;;;;;;6106869;23;20435;-90
2023/06/13 11:48:29;;;;;;;4.73;4.13;;;;;;;;;;6107760;23;20380;-89
2023/06/13 11:51:08;;;;;;;6.10;4.83;;;;;;;;;;6109357;23;20416;-90
2023/06/13 11:53:37;;;;;;;5.33;4.83;;;;;;;;;;6105362;23;20392;-88
2023/06/13 11:56:06;;;;;;;5.20;3.60;;;;;;;;;;6107667;23;20487;-89
2023/06/13 11:58:33;;;;;;;4.83;3.63;;;;;;;;;;6106260;23;20984;-90
2023/06/13 12:00:59;;;;;;;5.30;4.23;;;;;;;;;;6108228;23;20472;-90
2023/06/13 12:03:26;;;;;;;4.37;3.87;;;;;;;;;;6105683;23;20384;-89
2023/06/13 12:05:53;;;;;;;6.30;3.60;;;;;;;;;;6108050;23;20385;-89
2023/06/13 12:08:19;;;;;;;5.37;4.13;;;;;;;;;;6107696;23;20416;-88
2023/06/13 12:10:49;;;;;;;6.00;3.60;;;;;;;;;;6106729;23;20389;-89
2023/06/13 12:13:18;;;;;;;6.03;3.57;;;;;;;;;;6107795;23;20489;-91
2023/06/13 12:15:44;;;;;;;4.13;3.73;;;;;;;;;;6134134;23;20408;-90
2023/06/13 12:18:12;;;;;;;4.30;3.50;;;;;;;;;;6107191;23;20435;-90
2023/06/13 12:20:48;;;;;;;4.53;4.13;;;;;;;;;;6108001;23;20377;-90
2023/06/13 12:23:15;;;;;;;5.43;4.13;;;;;;;;;;6108086;23;20381;-93
2023/06/13 12:25:41;;;;;;;4.23;3.80;;;;;;;;;;6107933;23;20392;-90
2023/06/13 12:28:12;;;;;;;5.10;4.17;;;;;;;;;;6108084;23;20381;-89
2023/06/13 12:30:40;;;;;;;4.87;3.70;;;;;;;;;;6107778;23;20701;-88
2023/06/13 12:33:16;;;;;;;6.33;4.57;;;;;;;;;;6106668;23;20395;-88
2023/06/13 12:35:51;;;;;;;4.30;3.67;;;;;;;;;;6108725;23;20389;-89
2023/06/13 12:38:19;;;;;;;6.13;4.60;;;;;;;;;;6106611;23;20483;-89
2023/06/13 12:40:51;;;;;;;6.20;4.63;;;;;;;;;;6106689;23;20412;-89
2023/06/13 12:43:17;;;;;;;5.33;4.57;;;;;;;;;;6108489;23;20384;-89
2023/06/13 12:45:43;;;;;;;6.97;4.53;;;;;;;;;;6131913;23;20373;-88
2023/06/13 12:48:16;;;;;;;5.43;4.30;;;;;;;;;;6106682;23;20422;-89
2023/06/13 12:50:42;;;;;;;11.70;4.53;;;;;;;;;;6106164;23;20383;-89
2023/06/13 12:53:08;;;;;;;5.23;4.80;;;;;;;;;;6105540;23;20488;-87
2023/06/13 12:55:35;;;;;;;7.27;4.60;;;;;;;;;;6106423;23;20408;-88
2023/06/13 12:58:02;;;;;;;5.40;3.67;;;;;;;;;;6106051;23;20696;-89
2023/06/13 13:00:27;;;;;;;6.00;4.70;;;;;;;;;;6107503;23;20381;-87
2023/06/13 13:02:53;;;;;;;6.47;5.20;;;;;;;;;;6106398;23;20404;-89
2023/06/13 13:05:20;;;;;;;7.83;4.30;;;;;;;;;;6109508;23;20605;-88
2023/06/13 13:07:49;;;;;;;6.63;4.40;;;;;;;;;;6109401;23;20789;-89
2023/06/13 13:10:15;;;;;;;5.97;4.17;;;;;;;;;;6107898;23;20481;-89
2023/06/13 13:12:41;;;;;;;5.17;4.40;;;;;;;;;;6107209;23;20465;-89
2023/06/13 13:15:07;;;;;;;8.00;4.40;;;;;;;;;;6106840;23;20869;-89
2023/06/13 13:17:34;;;;;;;5.47;4.37;;;;;;;;;;6106168;23;20428;-88
2023/06/13 13:20:00;;;;;;;6.50;4.20;;;;;;;;;;6109721;23;20388;-89
2023/06/13 13:22:27;;;;;;;7.03;4.97;;;;;;;;;;6106508;23;20381;-87
2023/06/13 13:24:53;;;;;;;4.87;4.37;;;;;;;;;;6108486;23;20709;-88
2023/06/13 13:27:19;;;;;;;5.23;4.70;;;;;;;;;;6107990;23;20404;-90
2023/06/13 13:29:45;;;;;;;5.37;4.57;;;;;;;;;;6108680;23;20389;-90
2023/06/13 13:32:11;;;;;;;6.67;4.70;;;;;;;;;;6108083;23;20469;-88
2023/06/13 13:34:37;;;;;;;5.57;4.13;;;;;;;;;;6105989;23;20389;-88
2023/06/13 13:37:03;;;;;;;5.83;4.60;;;;;;;;;;6107301;23;20384;-88
2023/06/13 13:39:29;;;;;;;6.03;4.30;;;;;;;;;;6131604;23;20443;-88
2023/06/13 13:41:55;;;;;;;7.00;4.33;;;;;;;;;;6107128;23;20392;-88
2023/06/13 13:44:21;;;;;;;4.60;4.13;;;;;;;;;;6107739;23;20384;-89
2023/06/13 13:46:47;;;;;;;5.20;4.60;;;;;;;;;;6107030;23;20369;-90
2023/06/13 13:49:13;;;;;;;5.37;4.57;;;;;;;;;;6106872;23;20387;-89
2023/06/13 13:51:39;;;;;;;5.20;4.70;;;;;;;;;;6106414;23;20381;-87
2023/06/13 13:54:05;;;;;;;6.10;4.63;;;;;;;;;;6109384;23;20384;-89
2023/06/13 13:56:31;;;;;;;4.67;4.27;;;;;;;;;;6107112;23;20381;-87
2023/06/13 13:58:57;;;;;;;4.63;4.23;;;;;;;;;;6107485;23;21013;-88
2023/06/13 14:01:23;;;;;;;4.67;4.13;;;;;;;;;;6106431;23;20153;-88
2023/06/13 14:03:49;;;;;;;7.30;4.57;;;;;;;;;;6106990;23;20404;-88
2023/06/13 14:06:15;;;;;;;11.43;5.27;;;;;;;;;;6106903;23;20369;-89
2023/06/13 14:08:41;;;;;;;5.37;4.17;;;;;;;;;;6108290;23;20381;-87
2023/06/13 14:11:07;;;;;;;6.83;4.73;;;;;;;;;;6106315;23;20500;-87
2023/06/13 14:13:33;;;;;;;4.80;4.40;;;;;;;;;;6106681;23;20396;-88
2023/06/13 14:15:59;;;;;;;5.30;4.83;;;;;;;;;;6106738;23;20812;-87
2023/06/13 14:18:25;;;;;;;5.30;4.37;;;;;;;;;;6106463;23;20423;-86
2023/06/13 14:20:51;;;;;;;5.40;3.90;;;;;;;;;;6107159;23;20211;-87
2023/06/13 14:23:17;;;;;;;4.40;4.00;;;;;;;;;;6109105;23;20428;-86
2023/06/13 14:25:44;;;;;;;4.70;4.20;;;;;;;;;;6105834;23;20153;-88
2023/06/13 14:28:10;;;;;;;5.53;5.03;;;;;;;;;;6111610;23;20388;-87
2023/06/13 14:30:36;;;;;;;5.53;4.50;;;;;;;;;;6108165;23;20381;-87
2023/06/13 14:33:02;;;;;;;5.30;4.47;;;;;;;;;;6109538;23;20457;-86
2023/06/13 14:35:28;;;;;;;4.70;4.03;;;;;;;;;;6108359;23;20475;-87
2023/06/13 14:37:54;;;;;;;7.57;5.10;;;;;;;;;;6109074;23;20636;-88
2023/06/13 14:40:20;;;;;;;7.50;5.37;;;;;;;;;;6109163;23;20420;-88
2023/06/13 14:42:47;;;;;;;4.80;4.23;;;;;;;;;;6109848;23;20373;-88
2023/06/13 14:45:13;;;;;;;5.93;4.70;;;;;;;;;;6109003;23;20384;-88